sensor_id;sensor_type;location;lat;lon;timestamp;temperature;humidity
11095;DHT22;5601;44.490;11.400;2022-09-24T00:01:09;13.80;99.90
11095;DHT22;5601;44.490;11.400;2022-09-24T00:03:37;13.80;99.90
11095;DHT22;5601;44.490;11.400;2022-09-24T00:06:08;13.80;99.90
11095;DHT22;5601;44.490;11.400;2022-09-24T00:08:35;13.70;99.90
11095;DHT22;5601;44.490;11.400;2022-09-24T00:11:02;13.80;99.90
11095;DHT22;5601;44.490;11.400;2022-09-24T00:13:30;13.80;99.90
11095;DHT22;5601;44.490;11.400;2022-09-24T00:16:00;13.80;99.90
11095;DHT22;5601;44.490;11.400;2022-09-24T00:18:27;13.80;99.90
11095;DHT22;5601;44.490;11.400;2022-09-24T00:20:56;13.80;99.90
11095;DHT22;5601;44.490;11.400;2022-09-24T00:23:24;13.80;99.90
11095;DHT22;5601;44.490;11.400;2022-09-24T00:25:52;13.80;99.90
11095;DHT22;5601;44.490;11.400;2022-09-24T00:28:36;13.70;99.90
11095;DHT22;5601;44.490;11.400;2022-09-24T00:31:03;13.70;99.90
11095;DHT22;5601;44.490;11.400;2022-09-24T00:33:31;13.70;99.90
11095;DHT22;5601;44.490;11.400;2022-09-24T00:35:59;13.70;99.90
11095;DHT22;5601;44.490;11.400;2022-09-24T00:38:29;13.70;99.90
11095;DHT22;5601;44.490;11.400;2022-09-24T00:40:56;13.80;99.90
11095;DHT22;5601;44.490;11.400;2022-09-24T00:43:24;13.80;99.90
11095;DHT22;5601;44.490;11.400;2022-09-24T00:45:51;13.90;99.90
11095;DHT22;5601;44.490;11.400;2022-09-24T00:48:20;13.90;99.90
11095;DHT22;5601;44.490;11.400;2022-09-24T00:50:47;13.90;99.90
11095;DHT22;5601;44.490;11.400;2022-09-24T00:53:15;14.00;99.90
11095;DHT22;5601;44.490;11.400;2022-09-24T00:55:46;14.00;99.90
11095;DHT22;5601;44.490;11.400;2022-09-24T00:58:16;14.00;99.90
11095;DHT22;5601;44.490;11.400;2022-09-24T01:00:44;14.10;99.90
11095;DHT22;5601;44.490;11.400;2022-09-24T01:03:12;14.10;99.90
11095;DHT22;5601;44.490;11.400;2022-09-24T01:05:40;14.20;99.90
11095;DHT22;5601;44.490;11.400;2022-09-24T01:08:09;14.20;99.90
11095;DHT22;5601;44.490;11.400;2022-09-24T01:10:40;14.40;99.90
11095;DHT22;5601;44.490;11.400;2022-09-24T01:13:17;14.30;99.90
11095;DHT22;5601;44.490;11.400;2022-09-24T01:15:50;14.40;99.90
11095;DHT22;5601;44.490;11.400;2022-09-24T01:18:22;14.40;99.90
11095;DHT22;5601;44.490;11.400;2022-09-24T01:20:56;14.40;99.90
11095;DHT22;5601;44.490;11.400;2022-09-24T01:23:39;14.40;99.90
11095;DHT22;5601;44.490;11.400;2022-09-24T01:26:16;14.40;99.90
11095;DHT22;5601;44.490;11.400;2022-09-24T01:28:52;14.50;99.90
11095;DHT22;5601;44.490;11.400;2022-09-24T01:31:27;14.50;99.90
11095;DHT22;5601;44.490;11.400;2022-09-24T01:33:57;14.60;99.90
11095;DHT22;5601;44.490;11.400;2022-09-24T01:36:27;14.60;99.90
11095;DHT22;5601;44.490;11.400;2022-09-24T01:38:56;14.60;99.90
11095;DHT22;5601;44.490;11.400;2022-09-24T01:41:24;14.70;99.90
11095;DHT22;5601;44.490;11.400;2022-09-24T01:43:51;14.60;99.90
11095;DHT22;5601;44.490;11.400;2022-09-24T01:46:18;14.70;99.90
11095;DHT22;5601;44.490;11.400;2022-09-24T01:48:47;14.70;99.90
11095;DHT22;5601;44.490;11.400;2022-09-24T01:51:15;14.80;99.90
11095;DHT22;5601;44.490;11.400;2022-09-24T01:53:44;14.70;99.90
11095;DHT22;5601;44.490;11.400;2022-09-24T01:56:13;14.80;99.90
11095;DHT22;5601;44.490;11.400;2022-09-24T01:58:43;14.70;99.90
11095;DHT22;5601;44.490;11.400;2022-09-24T02:01:13;14.70;99.90
11095;DHT22;5601;44.490;11.400;2022-09-24T02:03:43;14.70;99.90
11095;DHT22;5601;44.490;11.400;2022-09-24T02:06:13;14.70;99.90
11095;DHT22;5601;44.490;11.400;2022-09-24T02:08:42;14.70;99.90
11095;DHT22;5601;44.490;11.400;2022-09-24T02:11:11;14.70;99.90
11095;DHT22;5601;44.490;11.400;2022-09-24T02:13:40;14.70;99.90
11095;DHT22;5601;44.490;11.400;2022-09-24T02:16:09;14.70;99.90
11095;DHT22;5601;44.490;11.400;2022-09-24T02:18:39;14.60;99.90
11095;DHT22;5601;44.490;11.400;2022-09-24T02:21:08;14.60;99.90
11095;DHT22;5601;44.490;11.400;2022-09-24T02:23:39;14.60;99.90
11095;DHT22;5601;44.490;11.400;2022-09-24T02:26:09;14.60;99.90
11095;DHT22;5601;44.490;11.400;2022-09-24T02:28:37;14.50;99.90
11095;DHT22;5601;44.490;11.400;2022-09-24T02:31:06;14.50;99.90
11095;DHT22;5601;44.490;11.400;2022-09-24T02:33:34;14.40;99.90
11095;DHT22;5601;44.490;11.400;2022-09-24T02:36:19;14.50;99.90
11095;DHT22;5601;44.490;11.400;2022-09-24T02:38:50;14.40;99.90
11095;DHT22;5601;44.490;11.400;2022-09-24T02:41:17;14.40;99.90
11095;DHT22;5601;44.490;11.400;2022-09-24T02:43:48;14.50;99.90
11095;DHT22;5601;44.490;11.400;2022-09-24T02:46:15;14.50;99.90
11095;DHT22;5601;44.490;11.400;2022-09-24T02:48:43;14.60;99.90
11095;DHT22;5601;44.490;11.400;2022-09-24T02:51:10;14.60;99.90
11095;DHT22;5601;44.490;11.400;2022-09-24T02:53:36;14.70;99.90
11095;DHT22;5601;44.490;11.400;2022-09-24T02:56:05;14.60;99.90
11095;DHT22;5601;44.490;11.400;2022-09-24T02:58:32;14.70;99.90
11095;DHT22;5601;44.490;11.400;2022-09-24T03:01:02;14.70;99.90
11095;DHT22;5601;44.490;11.400;2022-09-24T03:03:29;14.70;99.90
11095;DHT22;5601;44.490;11.400;2022-09-24T03:05:56;14.80;99.90
11095;DHT22;5601;44.490;11.400;2022-09-24T03:08:23;14.70;99.90
11095;DHT22;5601;44.490;11.400;2022-09-24T03:10:50;14.70;99.90
11095;DHT22;5601;44.490;11.400;2022-09-24T03:13:18;14.80;99.90
11095;DHT22;5601;44.490;11.400;2022-09-24T03:15:45;14.70;99.90
11095;DHT22;5601;44.490;11.400;2022-09-24T03:20:54;14.80;99.90
11095;DHT22;5601;44.490;11.400;2022-09-24T03:23:21;14.80;99.90
11095;DHT22;5601;44.490;11.400;2022-09-24T03:25:48;14.70;99.90
11095;DHT22;5601;44.490;11.400;2022-09-24T03:28:15;14.70;99.90
11095;DHT22;5601;44.490;11.400;2022-09-24T03:30:43;14.70;99.90
11095;DHT22;5601;44.490;11.400;2022-09-24T03:33:25;14.60;99.90
11095;DHT22;5601;44.490;11.400;2022-09-24T03:35:56;14.50;99.90
11095;DHT22;5601;44.490;11.400;2022-09-24T03:38:23;14.40;99.90
11095;DHT22;5601;44.490;11.400;2022-09-24T03:40:50;14.40;99.90
11095;DHT22;5601;44.490;11.400;2022-09-24T03:43:17;14.30;99.90
11095;DHT22;5601;44.490;11.400;2022-09-24T03:45:46;14.20;99.90
11095;DHT22;5601;44.490;11.400;2022-09-24T03:48:14;14.10;99.90
11095;DHT22;5601;44.490;11.400;2022-09-24T03:50:41;14.00;99.90
11095;DHT22;5601;44.490;11.400;2022-09-24T03:53:08;14.00;99.90
11095;DHT22;5601;44.490;11.400;2022-09-24T03:55:40;13.90;99.90
11095;DHT22;5601;44.490;11.400;2022-09-24T03:58:07;13.90;99.90
11095;DHT22;5601;44.490;11.400;2022-09-24T04:00:34;13.90;99.90
11095;DHT22;5601;44.490;11.400;2022-09-24T04:03:03;14.00;99.90
11095;DHT22;5601;44.490;11.400;2022-09-24T04:05:30;14.00;99.90
11095;DHT22;5601;44.490;11.400;2022-09-24T04:07:57;14.20;99.90
11095;DHT22;5601;44.490;11.400;2022-09-24T04:10:24;14.20;99.90
11095;DHT22;5601;44.490;11.400;2022-09-24T04:12:52;14.30;99.90
11095;DHT22;5601;44.490;11.400;2022-09-24T04:15:19;14.20;99.90
11095;DHT22;5601;44.490;11.400;2022-09-24T04:17:50;14.10;99.90
11095;DHT22;5601;44.490;11.400;2022-09-24T04:20:19;13.90;99.90
11095;DHT22;5601;44.490;11.400;2022-09-24T04:22:47;13.70;99.90
11095;DHT22;5601;44.490;11.400;2022-09-24T04:25:14;13.50;99.90
11095;DHT22;5601;44.490;11.400;2022-09-24T04:27:41;13.40;99.90
11095;DHT22;5601;44.490;11.400;2022-09-24T04:30:09;13.40;99.90
11095;DHT22;5601;44.490;11.400;2022-09-24T04:32:37;13.30;99.90
11095;DHT22;5601;44.490;11.400;2022-09-24T04:35:04;13.20;99.90
11095;DHT22;5601;44.490;11.400;2022-09-24T04:37:33;13.20;99.90
11095;DHT22;5601;44.490;11.400;2022-09-24T04:40:00;13.20;99.90
11095;DHT22;5601;44.490;11.400;2022-09-24T04:42:27;13.20;99.90
11095;DHT22;5601;44.490;11.400;2022-09-24T04:44:54;13.10;99.90
11095;DHT22;5601;44.490;11.400;2022-09-24T04:47:22;13.10;99.90
11095;DHT22;5601;44.490;11.400;2022-09-24T04:49:50;13.00;99.90
11095;DHT22;5601;44.490;11.400;2022-09-24T04:52:18;12.90;99.90
11095;DHT22;5601;44.490;11.400;2022-09-24T04:54:48;12.80;99.90
11095;DHT22;5601;44.490;11.400;2022-09-24T04:57:16;12.60;99.90
11095;DHT22;5601;44.490;11.400;2022-09-24T04:59:43;12.70;99.90
11095;DHT22;5601;44.490;11.400;2022-09-24T05:02:10;12.60;99.90
11095;DHT22;5601;44.490;11.400;2022-09-24T05:04:37;12.60;99.90
11095;DHT22;5601;44.490;11.400;2022-09-24T05:07:04;12.60;99.90
11095;DHT22;5601;44.490;11.400;2022-09-24T05:09:31;12.60;99.90
11095;DHT22;5601;44.490;11.400;2022-09-24T05:12:00;12.60;99.90
11095;DHT22;5601;44.490;11.400;2022-09-24T05:14:27;12.60;99.90
11095;DHT22;5601;44.490;11.400;2022-09-24T05:16:54;12.50;99.90
11095;DHT22;5601;44.490;11.400;2022-09-24T05:19:21;12.50;99.90
11095;DHT22;5601;44.490;11.400;2022-09-24T05:21:48;12.50;99.90
11095;DHT22;5601;44.490;11.400;2022-09-24T05:24:16;12.40;99.90
11095;DHT22;5601;44.490;11.400;2022-09-24T05:26:43;12.30;99.90
11095;DHT22;5601;44.490;11.400;2022-09-24T05:29:28;12.30;99.90
11095;DHT22;5601;44.490;11.400;2022-09-24T05:31:55;12.20;99.90
11095;DHT22;5601;44.490;11.400;2022-09-24T05:34:22;12.30;99.90
11095;DHT22;5601;44.490;11.400;2022-09-24T05:36:49;12.30;99.90
11095;DHT22;5601;44.490;11.400;2022-09-24T05:39:16;12.40;99.90
11095;DHT22;5601;44.490;11.400;2022-09-24T05:41:44;12.40;99.90
11095;DHT22;5601;44.490;11.400;2022-09-24T05:44:11;12.50;99.90
11095;DHT22;5601;44.490;11.400;2022-09-24T05:46:40;12.60;99.90
11095;DHT22;5601;44.490;11.400;2022-09-24T05:49:07;12.80;99.90
11095;DHT22;5601;44.490;11.400;2022-09-24T05:51:34;12.90;99.90
11095;DHT22;5601;44.490;11.400;2022-09-24T05:54:02;13.00;99.90
11095;DHT22;5601;44.490;11.400;2022-09-24T05:56:29;13.10;99.90
11095;DHT22;5601;44.490;11.400;2022-09-24T05:58:55;13.10;99.90
11095;DHT22;5601;44.490;11.400;2022-09-24T06:01:25;13.10;99.90
11095;DHT22;5601;44.490;11.400;2022-09-24T06:03:55;13.20;99.90
11095;DHT22;5601;44.490;11.400;2022-09-24T06:06:23;13.30;99.90
11095;DHT22;5601;44.490;11.400;2022-09-24T06:08:50;13.40;99.90
11095;DHT22;5601;44.490;11.400;2022-09-24T06:11:17;13.60;99.90
11095;DHT22;5601;44.490;11.400;2022-09-24T06:13:46;13.90;99.90
11095;DHT22;5601;44.490;11.400;2022-09-24T06:16:13;14.00;99.90
11095;DHT22;5601;44.490;11.400;2022-09-24T06:18:41;14.30;99.90
11095;DHT22;5601;44.490;11.400;2022-09-24T06:21:11;15.20;99.90
11095;DHT22;5601;44.490;11.400;2022-09-24T06:23:38;16.40;99.90
11095;DHT22;5601;44.490;11.400;2022-09-24T06:26:06;16.70;99.90
11095;DHT22;5601;44.490;11.400;2022-09-24T06:28:36;16.40;99.90
11095;DHT22;5601;44.490;11.400;2022-09-24T06:31:03;16.10;99.90
11095;DHT22;5601;44.490;11.400;2022-09-24T06:33:30;16.00;99.90
11095;DHT22;5601;44.490;11.400;2022-09-24T06:35:58;16.00;99.90
11095;DHT22;5601;44.490;11.400;2022-09-24T06:38:27;16.30;99.90
11095;DHT22;5601;44.490;11.400;2022-09-24T06:40:57;16.90;99.90
11095;DHT22;5601;44.490;11.400;2022-09-24T06:43:24;17.70;99.90
11095;DHT22;5601;44.490;11.400;2022-09-24T06:45:53;18.10;99.90
11095;DHT22;5601;44.490;11.400;2022-09-24T06:48:20;17.80;99.90
11095;DHT22;5601;44.490;11.400;2022-09-24T06:50:48;17.20;99.90
11095;DHT22;5601;44.490;11.400;2022-09-24T06:53:16;16.50;99.90
11095;DHT22;5601;44.490;11.400;2022-09-24T06:55:44;16.00;99.90
11095;DHT22;5601;44.490;11.400;2022-09-24T06:58:13;15.70;99.90
11095;DHT22;5601;44.490;11.400;2022-09-24T07:00:41;15.60;99.90
11095;DHT22;5601;44.490;11.400;2022-09-24T07:03:11;15.60;99.90
11095;DHT22;5601;44.490;11.400;2022-09-24T07:05:38;15.50;99.90
11095;DHT22;5601;44.490;11.400;2022-09-24T07:08:05;15.40;99.90
11095;DHT22;5601;44.490;11.400;2022-09-24T07:10:33;15.50;99.90
11095;DHT22;5601;44.490;11.400;2022-09-24T07:13:01;15.50;99.90
11095;DHT22;5601;44.490;11.400;2022-09-24T07:15:28;15.50;99.90
11095;DHT22;5601;44.490;11.400;2022-09-24T07:17:55;15.60;99.90
11095;DHT22;5601;44.490;11.400;2022-09-24T07:20:22;15.60;99.90
11095;DHT22;5601;44.490;11.400;2022-09-24T07:22:52;15.70;99.90
11095;DHT22;5601;44.490;11.400;2022-09-24T07:25:19;15.80;99.90
11095;DHT22;5601;44.490;11.400;2022-09-24T07:27:46;15.80;99.90
11095;DHT22;5601;44.490;11.400;2022-09-24T07:30:15;15.90;99.90
11095;DHT22;5601;44.490;11.400;2022-09-24T07:32:42;15.90;99.90
11095;DHT22;5601;44.490;11.400;2022-09-24T07:35:09;16.00;99.90
11095;DHT22;5601;44.490;11.400;2022-09-24T07:37:36;16.10;99.90
11095;DHT22;5601;44.490;11.400;2022-09-24T07:40:03;16.30;99.90
11095;DHT22;5601;44.490;11.400;2022-09-24T07:42:30;16.50;99.90
11095;DHT22;5601;44.490;11.400;2022-09-24T07:44:57;16.70;99.90
11095;DHT22;5601;44.490;11.400;2022-09-24T07:47:26;17.00;99.90
11095;DHT22;5601;44.490;11.400;2022-09-24T07:50:04;17.30;99.90
11095;DHT22;5601;44.490;11.400;2022-09-24T07:52:31;17.70;99.90
11095;DHT22;5601;44.490;11.400;2022-09-24T07:54:58;18.10;99.90
11095;DHT22;5601;44.490;11.400;2022-09-24T07:57:25;18.30;99.90
11095;DHT22;5601;44.490;11.400;2022-09-24T07:59:53;18.40;99.90
11095;DHT22;5601;44.490;11.400;2022-09-24T08:02:19;18.70;99.90
11095;DHT22;5601;44.490;11.400;2022-09-24T08:04:48;18.90;99.90
11095;DHT22;5601;44.490;11.400;2022-09-24T08:07:15;19.00;99.90
11095;DHT22;5601;44.490;11.400;2022-09-24T08:09:42;19.00;99.90
11095;DHT22;5601;44.490;11.400;2022-09-24T08:12:10;19.00;99.90
11095;DHT22;5601;44.490;11.400;2022-09-24T08:14:37;19.10;99.90
11095;DHT22;5601;44.490;11.400;2022-09-24T08:17:06;19.30;99.90
11095;DHT22;5601;44.490;11.400;2022-09-24T08:19:33;19.30;99.90
11095;DHT22;5601;44.490;11.400;2022-09-24T08:22:02;19.30;99.90
11095;DHT22;5601;44.490;11.400;2022-09-24T08:24:29;19.50;99.90
11095;DHT22;5601;44.490;11.400;2022-09-24T08:26:57;19.70;99.90
11095;DHT22;5601;44.490;11.400;2022-09-24T08:29:24;20.00;99.90
11095;DHT22;5601;44.490;11.400;2022-09-24T08:31:51;20.10;99.90
11095;DHT22;5601;44.490;11.400;2022-09-24T08:34:18;20.30;99.90
11095;DHT22;5601;44.490;11.400;2022-09-24T08:36:45;20.40;99.90
11095;DHT22;5601;44.490;11.400;2022-09-24T08:39:14;20.40;99.90
11095;DHT22;5601;44.490;11.400;2022-09-24T08:41:43;20.40;99.90
11095;DHT22;5601;44.490;11.400;2022-09-24T08:44:15;20.40;99.90
11095;DHT22;5601;44.490;11.400;2022-09-24T08:47:07;20.60;99.90
11095;DHT22;5601;44.490;11.400;2022-09-24T08:49:48;20.80;99.90
11095;DHT22;5601;44.490;11.400;2022-09-24T08:52:27;21.00;99.90
11095;DHT22;5601;44.490;11.400;2022-09-24T08:54:57;21.10;99.90
11095;DHT22;5601;44.490;11.400;2022-09-24T08:57:27;21.10;99.90
11095;DHT22;5601;44.490;11.400;2022-09-24T08:59:55;21.10;99.90
11095;DHT22;5601;44.490;11.400;2022-09-24T09:02:29;21.00;99.90
11095;DHT22;5601;44.490;11.400;2022-09-24T09:04:59;20.90;99.90
11095;DHT22;5601;44.490;11.400;2022-09-24T09:07:30;20.80;99.90
11095;DHT22;5601;44.490;11.400;2022-09-24T09:10:00;21.00;99.90
11095;DHT22;5601;44.490;11.400;2022-09-24T09:12:29;21.20;99.90
11095;DHT22;5601;44.490;11.400;2022-09-24T09:15:00;21.30;99.90
11095;DHT22;5601;44.490;11.400;2022-09-24T09:17:31;21.30;99.90
11095;DHT22;5601;44.490;11.400;2022-09-24T09:20:00;21.30;99.90
